sensor_id;sensor_type;location;lat;lon;timestamp;P1;durP1;ratioP1;P2;durP2;ratioP2
76310;SDS011;76681;59.304;18.294;2024-03-29T00:02:04;14.93;;;8.67;;
76310;SDS011;76681;59.304;18.294;2024-03-29T00:04:30;17.10;;;8.73;;
76310;SDS011;76681;59.304;18.294;2024-03-29T00:06:56;15.40;;;9.50;;
76310;SDS011;76681;59.304;18.294;2024-03-29T00:09:22;16.07;;;8.70;;
76310;SDS011;76681;59.304;18.294;2024-03-29T00:11:48;15.03;;;8.63;;
76310;SDS011;76681;59.304;18.294;2024-03-29T00:14:14;13.63;;;7.73;;
76310;SDS011;76681;59.304;18.294;2024-03-29T00:16:41;13.00;;;7.93;;
76310;SDS011;76681;59.304;18.294;2024-03-29T00:19:07;17.87;;;9.53;;
76310;SDS011;76681;59.304;18.294;2024-03-29T00:21:33;13.17;;;8.20;;
76310;SDS011;76681;59.304;18.294;2024-03-29T00:23:59;14.93;;;9.53;;
76310;SDS011;76681;59.304;18.294;2024-03-29T00:26:24;17.40;;;9.20;;
76310;SDS011;76681;59.304;18.294;2024-03-29T00:28:50;23.40;;;10.37;;
76310;SDS011;76681;59.304;18.294;2024-03-29T00:31:16;22.63;;;10.53;;
76310;SDS011;76681;59.304;18.294;2024-03-29T00:33:43;20.17;;;10.80;;
76310;SDS011;76681;59.304;18.294;2024-03-29T00:36:09;17.80;;;9.80;;
76310;SDS011;76681;59.304;18.294;2024-03-29T00:38:35;16.93;;;9.30;;
76310;SDS011;76681;59.304;18.294;2024-03-29T00:41:01;19.83;;;10.00;;
76310;SDS011;76681;59.304;18.294;2024-03-29T00:43:27;20.77;;;8.77;;
76310;SDS011;76681;59.304;18.294;2024-03-29T00:45:53;17.13;;;9.30;;
76310;SDS011;76681;59.304;18.294;2024-03-29T00:48:19;20.40;;;10.83;;
76310;SDS011;76681;59.304;18.294;2024-03-29T00:50:46;17.53;;;9.10;;
76310;SDS011;76681;59.304;18.294;2024-03-29T00:53:12;19.00;;;9.63;;
76310;SDS011;76681;59.304;18.294;2024-03-29T00:55:38;22.37;;;10.20;;
76310;SDS011;76681;59.304;18.294;2024-03-29T00:58:04;20.47;;;10.20;;
76310;SDS011;76681;59.304;18.294;2024-03-29T01:00:30;17.77;;;9.77;;
76310;SDS011;76681;59.304;18.294;2024-03-29T01:02:55;18.60;;;10.93;;
76310;SDS011;76681;59.304;18.294;2024-03-29T01:05:21;20.67;;;10.00;;
76310;SDS011;76681;59.304;18.294;2024-03-29T01:07:49;26.00;;;10.93;;
76310;SDS011;76681;59.304;18.294;2024-03-29T01:10:15;19.23;;;9.60;;
76310;SDS011;76681;59.304;18.294;2024-03-29T01:12:41;21.53;;;10.60;;
76310;SDS011;76681;59.304;18.294;2024-03-29T01:15:07;20.93;;;10.10;;
76310;SDS011;76681;59.304;18.294;2024-03-29T01:17:33;21.23;;;10.87;;
76310;SDS011;76681;59.304;18.294;2024-03-29T01:19:59;20.77;;;10.80;;
76310;SDS011;76681;59.304;18.294;2024-03-29T01:22:25;24.13;;;10.87;;
76310;SDS011;76681;59.304;18.294;2024-03-29T01:24:53;23.13;;;11.17;;
76310;SDS011;76681;59.304;18.294;2024-03-29T01:27:19;22.33;;;10.37;;
76310;SDS011;76681;59.304;18.294;2024-03-29T01:29:45;25.20;;;11.80;;
76310;SDS011;76681;59.304;18.294;2024-03-29T01:32:11;19.87;;;10.53;;
76310;SDS011;76681;59.304;18.294;2024-03-29T01:34:36;22.83;;;11.13;;
76310;SDS011;76681;59.304;18.294;2024-03-29T01:37:02;25.87;;;11.93;;
76310;SDS011;76681;59.304;18.294;2024-03-29T01:39:28;22.47;;;11.53;;
76310;SDS011;76681;59.304;18.294;2024-03-29T01:41:56;25.03;;;11.93;;
76310;SDS011;76681;59.304;18.294;2024-03-29T01:44:22;25.23;;;12.77;;
76310;SDS011;76681;59.304;18.294;2024-03-29T01:46:48;22.97;;;12.03;;
76310;SDS011;76681;59.304;18.294;2024-03-29T01:49:16;28.60;;;12.70;;
76310;SDS011;76681;59.304;18.294;2024-03-29T01:51:43;25.60;;;12.83;;
76310;SDS011;76681;59.304;18.294;2024-03-29T01:54:11;21.83;;;11.97;;
76310;SDS011;76681;59.304;18.294;2024-03-29T01:56:38;19.90;;;11.60;;
76310;SDS011;76681;59.304;18.294;2024-03-29T01:59:08;21.60;;;12.57;;
76310;SDS011;76681;59.304;18.294;2024-03-29T02:01:40;25.00;;;14.77;;
76310;SDS011;76681;59.304;18.294;2024-03-29T02:04:08;27.03;;;12.67;;
76310;SDS011;76681;59.304;18.294;2024-03-29T02:06:36;24.00;;;12.07;;
76310;SDS011;76681;59.304;18.294;2024-03-29T02:09:04;22.60;;;11.90;;
76310;SDS011;76681;59.304;18.294;2024-03-29T02:11:30;23.67;;;11.97;;
76310;SDS011;76681;59.304;18.294;2024-03-29T02:13:58;22.67;;;10.50;;
76310;SDS011;76681;59.304;18.294;2024-03-29T02:16:26;20.73;;;11.67;;
76310;SDS011;76681;59.304;18.294;2024-03-29T02:18:53;21.27;;;11.63;;
76310;SDS011;76681;59.304;18.294;2024-03-29T02:21:20;25.43;;;13.33;;
76310;SDS011;76681;59.304;18.294;2024-03-29T02:23:47;25.57;;;13.67;;
76310;SDS011;76681;59.304;18.294;2024-03-29T02:26:23;21.30;;;11.47;;
76310;SDS011;76681;59.304;18.294;2024-03-29T02:28:56;26.73;;;13.13;;
76310;SDS011;76681;59.304;18.294;2024-03-29T02:31:23;22.67;;;13.40;;
76310;SDS011;76681;59.304;18.294;2024-03-29T02:33:50;22.20;;;12.03;;
76310;SDS011;76681;59.304;18.294;2024-03-29T02:36:17;23.23;;;13.83;;
76310;SDS011;76681;59.304;18.294;2024-03-29T02:38:44;21.17;;;12.00;;
76310;SDS011;76681;59.304;18.294;2024-03-29T02:41:12;22.13;;;12.17;;
76310;SDS011;76681;59.304;18.294;2024-03-29T02:43:39;19.33;;;10.43;;
76310;SDS011;76681;59.304;18.294;2024-03-29T02:46:06;21.97;;;12.07;;
76310;SDS011;76681;59.304;18.294;2024-03-29T02:48:32;19.63;;;11.57;;
76310;SDS011;76681;59.304;18.294;2024-03-29T02:50:59;22.23;;;11.93;;
76310;SDS011;76681;59.304;18.294;2024-03-29T02:53:25;21.17;;;11.80;;
76310;SDS011;76681;59.304;18.294;2024-03-29T02:55:52;22.37;;;11.60;;
76310;SDS011;76681;59.304;18.294;2024-03-29T02:58:19;28.67;;;12.90;;
76310;SDS011;76681;59.304;18.294;2024-03-29T03:00:46;23.67;;;12.70;;
76310;SDS011;76681;59.304;18.294;2024-03-29T03:03:13;21.63;;;11.90;;
76310;SDS011;76681;59.304;18.294;2024-03-29T03:05:42;23.77;;;12.20;;
76310;SDS011;76681;59.304;18.294;2024-03-29T03:08:08;25.07;;;12.93;;
76310;SDS011;76681;59.304;18.294;2024-03-29T03:10:52;24.00;;;11.97;;
76310;SDS011;76681;59.304;18.294;2024-03-29T03:13:25;22.10;;;11.83;;
76310;SDS011;76681;59.304;18.294;2024-03-29T03:15:53;19.20;;;11.20;;
76310;SDS011;76681;59.304;18.294;2024-03-29T03:18:20;19.20;;;10.47;;
76310;SDS011;76681;59.304;18.294;2024-03-29T03:20:50;23.47;;;11.90;;
76310;SDS011;76681;59.304;18.294;2024-03-29T03:23:17;21.37;;;10.97;;
76310;SDS011;76681;59.304;18.294;2024-03-29T03:25:45;21.73;;;12.20;;
76310;SDS011;76681;59.304;18.294;2024-03-29T03:28:11;20.33;;;10.90;;
76310;SDS011;76681;59.304;18.294;2024-03-29T03:30:40;22.10;;;10.83;;
76310;SDS011;76681;59.304;18.294;2024-03-29T03:33:06;17.77;;;9.33;;
76310;SDS011;76681;59.304;18.294;2024-03-29T03:35:33;20.00;;;10.33;;
76310;SDS011;76681;59.304;18.294;2024-03-29T03:37:59;19.17;;;9.97;;
76310;SDS011;76681;59.304;18.294;2024-03-29T03:40:26;21.07;;;11.73;;
76310;SDS011;76681;59.304;18.294;2024-03-29T03:42:51;17.83;;;10.47;;
76310;SDS011;76681;59.304;18.294;2024-03-29T03:45:18;19.73;;;10.40;;
76310;SDS011;76681;59.304;18.294;2024-03-29T03:47:46;19.47;;;9.80;;
76310;SDS011;76681;59.304;18.294;2024-03-29T03:50:12;20.37;;;10.40;;
76310;SDS011;76681;59.304;18.294;2024-03-29T03:52:38;22.30;;;11.17;;
76310;SDS011;76681;59.304;18.294;2024-03-29T03:55:05;23.07;;;10.63;;
76310;SDS011;76681;59.304;18.294;2024-03-29T03:57:32;19.97;;;9.77;;
76310;SDS011;76681;59.304;18.294;2024-03-29T03:59:59;23.53;;;11.20;;
76310;SDS011;76681;59.304;18.294;2024-03-29T04:02:25;22.47;;;11.57;;
76310;SDS011;76681;59.304;18.294;2024-03-29T04:04:54;21.80;;;10.80;;
76310;SDS011;76681;59.304;18.294;2024-03-29T04:07:19;17.23;;;9.47;;
76310;SDS011;76681;59.304;18.294;2024-03-29T04:09:50;21.77;;;10.73;;
76310;SDS011;76681;59.304;18.294;2024-03-29T04:12:16;20.60;;;11.03;;
76310;SDS011;76681;59.304;18.294;2024-03-29T04:14:43;20.37;;;10.27;;
76310;SDS011;76681;59.304;18.294;2024-03-29T04:17:09;19.83;;;10.63;;
76310;SDS011;76681;59.304;18.294;2024-03-29T04:19:36;20.13;;;10.67;;
76310;SDS011;76681;59.304;18.294;2024-03-29T04:22:03;22.33;;;11.23;;
76310;SDS011;76681;59.304;18.294;2024-03-29T04:24:30;23.67;;;11.03;;
76310;SDS011;76681;59.304;18.294;2024-03-29T04:26:56;22.13;;;10.73;;
76310;SDS011;76681;59.304;18.294;2024-03-29T04:29:23;21.73;;;10.70;;
76310;SDS011;76681;59.304;18.294;2024-03-29T04:31:49;23.47;;;10.43;;
76310;SDS011;76681;59.304;18.294;2024-03-29T04:34:16;18.80;;;9.90;;
76310;SDS011;76681;59.304;18.294;2024-03-29T04:36:42;22.20;;;10.40;;
76310;SDS011;76681;59.304;18.294;2024-03-29T04:39:10;20.60;;;11.50;;
76310;SDS011;76681;59.304;18.294;2024-03-29T04:41:37;21.73;;;10.50;;
76310;SDS011;76681;59.304;18.294;2024-03-29T04:44:04;19.80;;;11.23;;
76310;SDS011;76681;59.304;18.294;2024-03-29T04:46:33;21.53;;;9.67;;
76310;SDS011;76681;59.304;18.294;2024-03-29T04:49:00;18.93;;;10.40;;
76310;SDS011;76681;59.304;18.294;2024-03-29T04:51:26;22.03;;;12.03;;
76310;SDS011;76681;59.304;18.294;2024-03-29T04:53:53;21.20;;;10.80;;
76310;SDS011;76681;59.304;18.294;2024-03-29T04:56:22;19.33;;;9.83;;
76310;SDS011;76681;59.304;18.294;2024-03-29T04:58:48;21.63;;;10.60;;
76310;SDS011;76681;59.304;18.294;2024-03-29T05:01:14;21.97;;;11.33;;
76310;SDS011;76681;59.304;18.294;2024-03-29T05:03:41;20.20;;;11.40;;
76310;SDS011;76681;59.304;18.294;2024-03-29T05:06:08;22.93;;;11.20;;
76310;SDS011;76681;59.304;18.294;2024-03-29T05:08:35;19.17;;;10.27;;
76310;SDS011;76681;59.304;18.294;2024-03-29T05:11:02;19.37;;;9.80;;
76310;SDS011;76681;59.304;18.294;2024-03-29T05:13:31;19.87;;;11.00;;
76310;SDS011;76681;59.304;18.294;2024-03-29T05:15:58;17.27;;;10.27;;
76310;SDS011;76681;59.304;18.294;2024-03-29T05:18:25;19.47;;;10.23;;
76310;SDS011;76681;59.304;18.294;2024-03-29T05:20:51;19.77;;;10.30;;
76310;SDS011;76681;59.304;18.294;2024-03-29T05:23:18;21.20;;;10.53;;
76310;SDS011;76681;59.304;18.294;2024-03-29T05:25:45;18.93;;;10.40;;
76310;SDS011;76681;59.304;18.294;2024-03-29T05:28:13;18.87;;;9.73;;
76310;SDS011;76681;59.304;18.294;2024-03-29T05:30:42;18.43;;;10.10;;
76310;SDS011;76681;59.304;18.294;2024-03-29T05:33:09;17.60;;;9.80;;
76310;SDS011;76681;59.304;18.294;2024-03-29T05:35:36;18.47;;;9.87;;
76310;SDS011;76681;59.304;18.294;2024-03-29T05:38:03;19.90;;;10.20;;
76310;SDS011;76681;59.304;18.294;2024-03-29T05:40:30;18.80;;;10.77;;
76310;SDS011;76681;59.304;18.294;2024-03-29T05:42:57;21.73;;;10.27;;
76310;SDS011;76681;59.304;18.294;2024-03-29T05:45:26;20.03;;;10.67;;
76310;SDS011;76681;59.304;18.294;2024-03-29T05:47:56;19.27;;;10.27;;
76310;SDS011;76681;59.304;18.294;2024-03-29T05:50:24;20.73;;;10.47;;
76310;SDS011;76681;59.304;18.294;2024-03-29T05:52:52;17.60;;;9.70;;
76310;SDS011;76681;59.304;18.294;2024-03-29T05:55:19;20.33;;;11.07;;
76310;SDS011;76681;59.304;18.294;2024-03-29T05:57:46;17.53;;;10.20;;
76310;SDS011;76681;59.304;18.294;2024-03-29T06:00:14;23.30;;;10.87;;
76310;SDS011;76681;59.304;18.294;2024-03-29T06:02:41;22.93;;;11.63;;
76310;SDS011;76681;59.304;18.294;2024-03-29T06:05:11;17.67;;;9.73;;
76310;SDS011;76681;59.304;18.294;2024-03-29T06:07:38;18.27;;;10.57;;
76310;SDS011;76681;59.304;18.294;2024-03-29T06:10:05;19.43;;;10.17;;
76310;SDS011;76681;59.304;18.294;2024-03-29T06:12:34;21.83;;;11.57;;
76310;SDS011;76681;59.304;18.294;2024-03-29T06:15:03;20.83;;;10.63;;
76310;SDS011;76681;59.304;18.294;2024-03-29T06:17:48;20.43;;;10.80;;
76310;SDS011;76681;59.304;18.294;2024-03-29T06:20:17;20.30;;;9.83;;
76310;SDS011;76681;59.304;18.294;2024-03-29T06:22:44;18.37;;;10.60;;
76310;SDS011;76681;59.304;18.294;2024-03-29T06:25:11;15.57;;;10.03;;
76310;SDS011;76681;59.304;18.294;2024-03-29T06:27:38;18.27;;;10.37;;
76310;SDS011;76681;59.304;18.294;2024-03-29T06:30:05;23.57;;;11.20;;
76310;SDS011;76681;59.304;18.294;2024-03-29T06:32:33;19.13;;;10.43;;
76310;SDS011;76681;59.304;18.294;2024-03-29T06:35:00;20.97;;;10.93;;
76310;SDS011;76681;59.304;18.294;2024-03-29T06:37:29;21.77;;;10.50;;
76310;SDS011;76681;59.304;18.294;2024-03-29T06:39:56;17.33;;;9.57;;
76310;SDS011;76681;59.304;18.294;2024-03-29T06:42:23;20.13;;;10.53;;
76310;SDS011;76681;59.304;18.294;2024-03-29T06:44:50;20.50;;;11.33;;
76310;SDS011;76681;59.304;18.294;2024-03-29T06:47:17;18.20;;;10.37;;
76310;SDS011;76681;59.304;18.294;2024-03-29T06:49:44;17.60;;;10.03;;
76310;SDS011;76681;59.304;18.294;2024-03-29T06:52:11;19.23;;;10.33;;
76310;SDS011;76681;59.304;18.294;2024-03-29T06:54:40;18.80;;;9.80;;
76310;SDS011;76681;59.304;18.294;2024-03-29T06:57:07;17.33;;;9.17;;
76310;SDS011;76681;59.304;18.294;2024-03-29T06:59:35;20.33;;;9.60;;
76310;SDS011;76681;59.304;18.294;2024-03-29T07:02:02;19.77;;;10.23;;
76310;SDS011;76681;59.304;18.294;2024-03-29T07:04:29;19.07;;;10.90;;
76310;SDS011;76681;59.304;18.294;2024-03-29T07:06:56;17.13;;;10.20;;
76310;SDS011;76681;59.304;18.294;2024-03-29T07:09:23;19.47;;;10.17;;
76310;SDS011;76681;59.304;18.294;2024-03-29T07:11:52;18.97;;;10.17;;
76310;SDS011;76681;59.304;18.294;2024-03-29T07:14:20;21.30;;;10.57;;
76310;SDS011;76681;59.304;18.294;2024-03-29T07:16:48;83.93;;;26.20;;
76310;SDS011;76681;59.304;18.294;2024-03-29T07:19:15;43.90;;;17.80;;
76310;SDS011;76681;59.304;18.294;2024-03-29T07:21:44;23.30;;;12.43;;
76310;SDS011;76681;59.304;18.294;2024-03-29T07:24:11;18.17;;;9.97;;
76310;SDS011;76681;59.304;18.294;2024-03-29T07:26:38;19.73;;;9.77;;
76310;SDS011;76681;59.304;18.294;2024-03-29T07:29:06;20.03;;;10.20;;
76310;SDS011;76681;59.304;18.294;2024-03-29T07:31:33;18.53;;;8.83;;
76310;SDS011;76681;59.304;18.294;2024-03-29T07:34:00;17.47;;;9.33;;
76310;SDS011;76681;59.304;18.294;2024-03-29T07:36:27;16.10;;;8.87;;
76310;SDS011;76681;59.304;18.294;2024-03-29T07:38:59;17.20;;;8.40;;
76310;SDS011;76681;59.304;18.294;2024-03-29T07:41:26;15.13;;;8.00;;
76310;SDS011;76681;59.304;18.294;2024-03-29T07:43:53;16.70;;;9.20;;
76310;SDS011;76681;59.304;18.294;2024-03-29T07:46:27;14.03;;;7.60;;
76310;SDS011;76681;59.304;18.294;2024-03-29T07:48:54;14.17;;;8.53;;
76310;SDS011;76681;59.304;18.294;2024-03-29T07:51:21;12.87;;;7.60;;
76310;SDS011;76681;59.304;18.294;2024-03-29T07:53:50;13.40;;;7.00;;
76310;SDS011;76681;59.304;18.294;2024-03-29T07:56:17;13.70;;;7.47;;
76310;SDS011;76681;59.304;18.294;2024-03-29T07:58:45;13.20;;;7.07;;
76310;SDS011;76681;59.304;18.294;2024-03-29T08:01:17;11.53;;;6.27;;
76310;SDS011;76681;59.304;18.294;2024-03-29T08:03:46;12.10;;;6.67;;
76310;SDS011;76681;59.304;18.294;2024-03-29T08:06:13;9.53;;;6.17;;
76310;SDS011;76681;59.304;18.294;2024-03-29T08:08:41;10.93;;;5.37;;
76310;SDS011;76681;59.304;18.294;2024-03-29T08:11:08;8.47;;;5.57;;
76310;SDS011;76681;59.304;18.294;2024-03-29T08:13:36;10.13;;;5.27;;
76310;SDS011;76681;59.304;18.294;2024-03-29T08:16:04;8.90;;;6.00;;
76310;SDS011;76681;59.304;18.294;2024-03-29T08:18:31;9.60;;;5.90;;
76310;SDS011;76681;59.304;18.294;2024-03-29T08:21:00;8.10;;;5.27;;
76310;SDS011;76681;59.304;18.294;2024-03-29T08:23:28;8.40;;;5.90;;
76310;SDS011;76681;59.304;18.294;2024-03-29T08:25:56;9.20;;;5.27;;
76310;SDS011;76681;59.304;18.294;2024-03-29T08:28:22;8.17;;;4.80;;
76310;SDS011;76681;59.304;18.294;2024-03-29T08:30:59;9.10;;;5.97;;
76310;SDS011;76681;59.304;18.294;2024-03-29T08:33:26;8.40;;;5.20;;
76310;SDS011;76681;59.304;18.294;2024-03-29T08:35:53;7.17;;;4.77;;
76310;SDS011;76681;59.304;18.294;2024-03-29T08:38:22;8.07;;;5.10;;
76310;SDS011;76681;59.304;18.294;2024-03-29T08:40:50;8.90;;;4.53;;
76310;SDS011;76681;59.304;18.294;2024-03-29T08:43:17;8.53;;;5.00;;
76310;SDS011;76681;59.304;18.294;2024-03-29T08:45:44;8.20;;;4.73;;
76310;SDS011;76681;59.304;18.294;2024-03-29T08:48:11;7.73;;;4.97;;
76310;SDS011;76681;59.304;18.294;2024-03-29T08:50:38;9.90;;;5.03;;
76310;SDS011;76681;59.304;18.294;2024-03-29T08:53:05;8.07;;;5.30;;
76310;SDS011;76681;59.304;18.294;2024-03-29T08:55:34;6.07;;;4.30;;
76310;SDS011;76681;59.304;18.294;2024-03-29T08:58:04;9.13;;;4.70;;
76310;SDS011;76681;59.304;18.294;2024-03-29T09:00:31;6.37;;;4.30;;
76310;SDS011;76681;59.304;18.294;2024-03-29T09:02:58;6.30;;;4.50;;
76310;SDS011;76681;59.304;18.294;2024-03-29T09:05:26;7.10;;;4.40;;
76310;SDS011;76681;59.304;18.294;2024-03-29T09:07:54;6.20;;;3.90;;
76310;SDS011;76681;59.304;18.294;2024-03-29T09:10:23;6.30;;;3.83;;
76310;SDS011;76681;59.304;18.294;2024-03-29T09:12:53;6.90;;;4.20;;
76310;SDS011;76681;59.304;18.294;2024-03-29T09:15:20;8.77;;;4.27;;
76310;SDS011;76681;59.304;18.294;2024-03-29T09:17:49;7.10;;;4.27;;
76310;SDS011;76681;59.304;18.294;2024-03-29T09:20:19;9.07;;;4.10;;
76310;SDS011;76681;59.304;18.294;2024-03-29T09:22:46;7.57;;;3.67;;
76310;SDS011;76681;59.304;18.294;2024-03-29T09:25:16;4.07;;;3.30;;
76310;SDS011;76681;59.304;18.294;2024-03-29T09:27:45;5.57;;;3.43;;
76310;SDS011;76681;59.304;18.294;2024-03-29T09:30:15;5.87;;;4.07;;
76310;SDS011;76681;59.304;18.294;2024-03-29T09:32:44;7.73;;;4.80;;
76310;SDS011;76681;59.304;18.294;2024-03-29T09:35:10;5.77;;;4.20;;
76310;SDS011;76681;59.304;18.294;2024-03-29T09:37:40;7.50;;;4.50;;
76310;SDS011;76681;59.304;18.294;2024-03-29T09:40:08;7.43;;;4.17;;
76310;SDS011;76681;59.304;18.294;2024-03-29T09:42:39;6.77;;;4.60;;
76310;SDS011;76681;59.304;18.294;2024-03-29T09:45:10;7.73;;;4.47;;
76310;SDS011;76681;59.304;18.294;2024-03-29T09:47:42;7.50;;;4.27;;
76310;SDS011;76681;59.304;18.294;2024-03-29T09:50:10;9.23;;;4.97;;
76310;SDS011;76681;59.304;18.294;2024-03-29T09:52:37;7.00;;;4.07;;
76310;SDS011;76681;59.304;18.294;2024-03-29T09:55:07;7.97;;;3.73;;
76310;SDS011;76681;59.304;18.294;2024-03-29T09:57:35;5.23;;;3.50;;
76310;SDS011;76681;59.304;18.294;2024-03-29T10:00:02;5.43;;;3.57;;
76310;SDS011;76681;59.304;18.294;2024-03-29T10:02:30;8.77;;;3.80;;
76310;SDS011;76681;59.304;18.294;2024-03-29T10:05:00;6.40;;;4.10;;
76310;SDS011;76681;59.304;18.294;2024-03-29T10:07:33;7.00;;;3.27;;
76310;SDS011;76681;59.304;18.294;2024-03-29T10:10:02;5.27;;;3.33;;
76310;SDS011;76681;59.304;18.294;2024-03-29T10:12:30;5.37;;;3.97;;
76310;SDS011;76681;59.304;18.294;2024-03-29T10:14:57;5.77;;;3.60;;
76310;SDS011;76681;59.304;18.294;2024-03-29T10:17:30;6.90;;;3.50;;
76310;SDS011;76681;59.304;18.294;2024-03-29T10:20:05;4.33;;;3.27;;
76310;SDS011;76681;59.304;18.294;2024-03-29T10:22:40;6.77;;;3.70;;
76310;SDS011;76681;59.304;18.294;2024-03-29T10:25:08;6.93;;;3.40;;
76310;SDS011;76681;59.304;18.294;2024-03-29T10:27:35;4.37;;;2.93;;
76310;SDS011;76681;59.304;18.294;2024-03-29T10:30:03;6.73;;;3.80;;
76310;SDS011;76681;59.304;18.294;2024-03-29T10:32:30;6.47;;;3.47;;
76310;SDS011;76681;59.304;18.294;2024-03-29T10:34:58;7.47;;;3.27;;
76310;SDS011;76681;59.304;18.294;2024-03-29T10:37:29;5.80;;;3.43;;
76310;SDS011;76681;59.304;18.294;2024-03-29T10:40:00;6.93;;;3.77;;
76310;SDS011;76681;59.304;18.294;2024-03-29T10:42:28;5.87;;;3.37;;
76310;SDS011;76681;59.304;18.294;2024-03-29T10:44:58;5.37;;;3.47;;
76310;SDS011;76681;59.304;18.294;2024-03-29T10:47:32;6.57;;;3.00;;
76310;SDS011;76681;59.304;18.294;2024-03-29T10:50:00;5.67;;;3.40;;
76310;SDS011;76681;59.304;18.294;2024-03-29T10:52:29;6.93;;;3.67;;
76310;SDS011;76681;59.304;18.294;2024-03-29T10:54:57;3.73;;;3.00;;
76310;SDS011;76681;59.304;18.294;2024-03-29T10:57:24;5.23;;;3.20;;
76310;SDS011;76681;59.304;18.294;2024-03-29T10:59:57;5.53;;;3.23;;
76310;SDS011;76681;59.304;18.294;2024-03-29T11:02:32;5.60;;;3.60;;
76310;SDS011;76681;59.304;18.294;2024-03-29T11:05:05;5.30;;;3.17;;
76310;SDS011;76681;59.304;18.294;2024-03-29T11:07:38;5.67;;;3.77;;
76310;SDS011;76681;59.304;18.294;2024-03-29T11:10:11;5.30;;;3.23;;
76310;SDS011;76681;59.304;18.294;2024-03-29T11:12:45;5.30;;;3.27;;
76310;SDS011;76681;59.304;18.294;2024-03-29T11:15:22;5.70;;;3.43;;
76310;SDS011;76681;59.304;18.294;2024-03-29T11:17:55;6.70;;;3.63;;
76310;SDS011;76681;59.304;18.294;2024-03-29T11:20:26;4.83;;;3.60;;
76310;SDS011;76681;59.304;18.294;2024-03-29T11:23:02;6.53;;;3.60;;
76310;SDS011;76681;59.304;18.294;2024-03-29T11:25:41;5.30;;;3.27;;
76310;SDS011;76681;59.304;18.294;2024-03-29T11:28:08;5.67;;;3.60;;
76310;SDS011;76681;59.304;18.294;2024-03-29T11:30:42;4.67;;;3.13;;
76310;SDS011;76681;59.304;18.294;2024-03-29T11:35:58;5.53;;;3.23;;
76310;SDS011;76681;59.304;18.294;2024-03-29T11:38:31;4.07;;;3.10;;
76310;SDS011;76681;59.304;18.294;2024-03-29T11:41:03;5.27;;;3.67;;
76310;SDS011;76681;59.304;18.294;2024-03-29T11:43:31;5.27;;;3.70;;
76310;SDS011;76681;59.304;18.294;2024-03-29T11:45:58;5.00;;;3.77;;
76310;SDS011;76681;59.304;18.294;2024-03-29T11:48:27;4.37;;;3.40;;
76310;SDS011;76681;59.304;18.294;2024-03-29T11:50:54;5.30;;;3.40;;
76310;SDS011;76681;59.304;18.294;2024-03-29T11:53:21;3.77;;;3.33;;
76310;SDS011;76681;59.304;18.294;2024-03-29T11:55:54;5.73;;;3.53;;
76310;SDS011;76681;59.304;18.294;2024-03-29T11:58:24;5.77;;;2.90;;
76310;SDS011;76681;59.304;18.294;2024-03-29T12:00:54;4.03;;;2.77;;
76310;SDS011;76681;59.304;18.294;2024-03-29T12:03:23;4.40;;;2.97;;
76310;SDS011;76681;59.304;18.294;2024-03-29T12:05:51;5.03;;;3.03;;
76310;SDS011;76681;59.304;18.294;2024-03-29T12:08:20;3.83;;;2.60;;
76310;SDS011;76681;59.304;18.294;2024-03-29T12:10:48;3.77;;;2.43;;
76310;SDS011;76681;59.304;18.294;2024-03-29T12:13:17;2.90;;;2.20;;
76310;SDS011;76681;59.304;18.294;2024-03-29T12:15:44;2.90;;;2.30;;
76310;SDS011;76681;59.304;18.294;2024-03-29T12:18:11;2.90;;;2.07;;
76310;SDS011;76681;59.304;18.294;2024-03-29T12:20:41;3.50;;;2.17;;
76310;SDS011;76681;59.304;18.294;2024-03-29T12:23:11;3.13;;;1.93;;
76310;SDS011;76681;59.304;18.294;2024-03-29T12:25:39;2.73;;;2.10;;
76310;SDS011;76681;59.304;18.294;2024-03-29T12:28:07;4.33;;;2.27;;
76310;SDS011;76681;59.304;18.294;2024-03-29T12:30:37;3.43;;;1.80;;
76310;SDS011;76681;59.304;18.294;2024-03-29T12:33:07;2.60;;;2.00;;
76310;SDS011;76681;59.304;18.294;2024-03-29T12:35:39;2.57;;;1.70;;
76310;SDS011;76681;59.304;18.294;2024-03-29T12:38:10;2.80;;;1.67;;
76310;SDS011;76681;59.304;18.294;2024-03-29T12:40:37;1.80;;;1.53;;
76310;SDS011;76681;59.304;18.294;2024-03-29T12:43:06;3.97;;;1.83;;
76310;SDS011;76681;59.304;18.294;2024-03-29T12:45:33;1.90;;;1.70;;
76310;SDS011;76681;59.304;18.294;2024-03-29T12:48:03;2.37;;;1.77;;
76310;SDS011;76681;59.304;18.294;2024-03-29T12:50:36;2.00;;;1.77;;
76310;SDS011;76681;59.304;18.294;2024-03-29T12:53:06;2.83;;;1.80;;
76310;SDS011;76681;59.304;18.294;2024-03-29T12:55:33;2.93;;;1.70;;
76310;SDS011;76681;59.304;18.294;2024-03-29T12:58:04;1.53;;;1.40;;
76310;SDS011;76681;59.304;18.294;2024-03-29T13:00:34;1.93;;;1.50;;
76310;SDS011;76681;59.304;18.294;2024-03-29T13:03:03;2.27;;;1.73;;
76310;SDS011;76681;59.304;18.294;2024-03-29T13:05:30;1.77;;;1.50;;
76310;SDS011;76681;59.304;18.294;2024-03-29T13:08:00;1.43;;;1.30;;
76310;SDS011;76681;59.304;18.294;2024-03-29T13:10:27;2.03;;;1.60;;
76310;SDS011;76681;59.304;18.294;2024-03-29T13:12:53;1.93;;;1.50;;
76310;SDS011;76681;59.304;18.294;2024-03-29T13:15:21;2.40;;;1.10;;
76310;SDS011;76681;59.304;18.294;2024-03-29T13:17:50;1.73;;;1.17;;
76310;SDS011;76681;59.304;18.294;2024-03-29T13:20:19;2.17;;;1.40;;
76310;SDS011;76681;59.304;18.294;2024-03-29T13:22:47;3.40;;;1.50;;
76310;SDS011;76681;59.304;18.294;2024-03-29T13:25:15;2.20;;;1.40;;
76310;SDS011;76681;59.304;18.294;2024-03-29T13:27:44;1.90;;;1.50;;
76310;SDS011;76681;59.304;18.294;2024-03-29T13:30:12;1.90;;;1.30;;
76310;SDS011;76681;59.304;18.294;2024-03-29T13:32:40;2.83;;;1.37;;
76310;SDS011;76681;59.304;18.294;2024-03-29T13:35:09;1.53;;;1.30;;
76310;SDS011;76681;59.304;18.294;2024-03-29T13:37:39;1.40;;;1.30;;
76310;SDS011;76681;59.304;18.294;2024-03-29T13:40:08;1.23;;;1.13;;
76310;SDS011;76681;59.304;18.294;2024-03-29T13:42:36;1.30;;;1.20;;
76310;SDS011;76681;59.304;18.294;2024-03-29T13:45:03;1.87;;;1.20;;
76310;SDS011;76681;59.304;18.294;2024-03-29T13:47:31;2.37;;;1.23;;
76310;SDS011;76681;59.304;18.294;2024-03-29T13:49:59;2.00;;;1.10;;
76310;SDS011;76681;59.304;18.294;2024-03-29T13:52:26;2.17;;;1.30;;
76310;SDS011;76681;59.304;18.294;2024-03-29T13:54:54;2.90;;;1.20;;
76310;SDS011;76681;59.304;18.294;2024-03-29T13:57:21;1.50;;;1.20;;
76310;SDS011;76681;59.304;18.294;2024-03-29T13:59:48;2.10;;;1.40;;
76310;SDS011;76681;59.304;18.294;2024-03-29T14:02:16;1.23;;;1.03;;
76310;SDS011;76681;59.304;18.294;2024-03-29T14:04:44;2.60;;;1.10;;
76310;SDS011;76681;59.304;18.294;2024-03-29T14:07:12;1.27;;;1.00;;
76310;SDS011;76681;59.304;18.294;2024-03-29T14:09:40;1.83;;;1.00;;
76310;SDS011;76681;59.304;18.294;2024-03-29T14:12:09;2.60;;;1.10;;
76310;SDS011;76681;59.304;18.294;2024-03-29T14:14:36;1.10;;;1.00;;
76310;SDS011;76681;59.304;18.294;2024-03-29T14:17:03;1.10;;;1.00;;
76310;SDS011;76681;59.304;18.294;2024-03-29T14:19:32;2.30;;;1.30;;
76310;SDS011;76681;59.304;18.294;2024-03-29T14:21:59;1.13;;;0.83;;
76310;SDS011;76681;59.304;18.294;2024-03-29T14:24:26;2.77;;;1.00;;
76310;SDS011;76681;59.304;18.294;2024-03-29T14:26:55;1.90;;;0.90;;
76310;SDS011;76681;59.304;18.294;2024-03-29T14:29:23;2.20;;;1.20;;